Geja C — VSQG6 — position and weather

sailwx.info

Track history (hours):
 
Tides and Currents Weather Stations Pressure Air Temp Water Temp Dewpoint Dewpoint Depression Visibility Wind Speed Wind Dir Waves Ship Positions

Geja C

Last reported at 2015-Jan-31 03:33 UTC. Time now 2015-Jan-31 04:05 UTC.
Position N 51°22' E 001°56'.

Length 142 m; draft 7.3 m.

Type: Ship (hazmat cat A). MMSI: 235006360.

Date/timePositionNaut miles runAvg speedWind from/ knotsBaromVisibWave heightAir tempDewpointWater temp
2015-Jan-31 03:33N 51°22' E 001°56'10 9.8
2015-Jan-31 02:33N 51°22' E 002°12'1211.2
2015-Jan-31 01:32N 51°23' E 002°30'1010.7
2015-Jan-31 00:33N 51°24' E 002°46'1110.9
2015-Jan-30 23:32N 51°24' E 003°04'1110.7
2015-Jan-30 22:33N 51°25' E 003°21'10 9.9
2015-Jan-30 21:33N 51°26' E 003°37'9 8.5
2015-Jan-30 20:34N 51°21' E 003°48'9 8.9
2015-Jan-30 19:33N 51°26' E 003°60'8 7.5
2015-Jan-30 18:33N 51°24' E 004°11'9 8.5
2015-Jan-30 17:33N 51°17' E 004°19'1 0.6
2015-Jan-30 16:33N 51°17' E 004°20'2 1.7
2015-Jan-30 15:31N 51°17' E 004°23'0 0.0
2015-Jan-30 14:31N 51°17' E 004°23'0 0.0
2015-Jan-30 13:31N 51°17' E 004°23'0 0.0
2015-Jan-30 12:31N 51°17' E 004°23'0 0.0
2015-Jan-30 11:22N 51°17' E 004°23'0 0.0
2015-Jan-30 10:31N 51°17' E 004°23'0 0.0
2015-Jan-30 09:28N 51°17' E 004°23'0 0.0
2015-Jan-30 08:28N 51°17' E 004°23'0 0.0
2015-Jan-30 07:31N 51°17' E 004°23'0 0.0
2015-Jan-30 06:28N 51°17' E 004°23'0 0.0
2015-Jan-30 05:28N 51°17' E 004°23'0 0.0
2015-Jan-30 04:31N 51°17' E 004°23'0 0.0
2015-Jan-30 03:31N 51°17' E 004°23'0 0.0
2015-Jan-30 02:31N 51°17' E 004°23'0 0.0
2015-Jan-30 01:31N 51°17' E 004°23'0 0.0
2015-Jan-30 00:31N 51°17' E 004°23'0 0.0
2015-Jan-29 23:31N 51°17' E 004°23'0 0.0
2015-Jan-29 22:31N 51°17' E 004°23'0 0.0
2015-Jan-29 21:31N 51°17' E 004°23'0 0.0
2015-Jan-29 20:31N 51°17' E 004°23'0 0.0
2015-Jan-29 19:31N 51°17' E 004°23'0 0.0
2015-Jan-29 18:31N 51°17' E 004°23'0 0.0
2015-Jan-29 17:31N 51°17' E 004°23'0 0.0
2015-Jan-29 16:31N 51°17' E 004°23'0 0.0
2015-Jan-29 15:31N 51°17' E 004°23'0 0.0
2015-Jan-29 14:31N 51°17' E 004°23'0 0.0
2015-Jan-29 13:31N 51°17' E 004°23'0 0.0
2015-Jan-29 12:31N 51°17' E 004°23'0 0.0
2015-Jan-29 11:31N 51°17' E 004°23'0 0.0
2015-Jan-29 10:22N 51°17' E 004°23'0 0.0
2015-Jan-29 09:31N 51°17' E 004°23'0 0.0
2015-Jan-29 08:31N 51°17' E 004°23'0 0.0
2015-Jan-29 07:31N 51°17' E 004°23'0 0.0
2015-Jan-29 06:22N 51°17' E 004°23'0 0.0
2015-Jan-29 05:31N 51°17' E 004°23'0 0.0
2015-Jan-29 04:28N 51°17' E 004°23'0 0.0
2015-Jan-29 03:25N 51°17' E 004°23'0 0.0
2015-Jan-29 02:25N 51°17' E 004°23'0 0.0
2015-Jan-29 01:31N 51°17' E 004°23'0 0.0
2015-Jan-29 00:31N 51°17' E 004°23'0 0.0
2015-Jan-28 23:31N 51°17' E 004°23'0 0.0
2015-Jan-28 22:31N 51°17' E 004°23'0 0.0
2015-Jan-28 21:28N 51°17' E 004°23'0 0.0
2015-Jan-28 20:31N 51°17' E 004°23'0 0.0
2015-Jan-28 19:31N 51°17' E 004°23'0 0.0
2015-Jan-28 18:31N 51°17' E 004°23'0 0.0
2015-Jan-28 17:31N 51°17' E 004°23'0 0.0
2015-Jan-28 16:28N 51°17' E 004°23'0 0.0
2015-Jan-28 15:31N 51°17' E 004°23'0 0.0
2015-Jan-28 14:28N 51°17' E 004°23'0 0.0
2015-Jan-28 13:31N 51°17' E 004°23'0 0.0
2015-Jan-28 12:31N 51°17' E 004°23'0 0.0
2015-Jan-28 11:31N 51°17' E 004°23'0 0.0
2015-Jan-28 10:31N 51°17' E 004°23'0 0.0
2015-Jan-28 09:31N 51°17' E 004°23'0 0.0
2015-Jan-28 08:31N 51°17' E 004°23'0 0.0
2015-Jan-28 07:28N 51°17' E 004°23'0 0.0
2015-Jan-28 06:28N 51°17' E 004°23'0 0.0
2015-Jan-28 05:25N 51°17' E 004°23'0 0.0
2015-Jan-28 04:31N 51°17' E 004°23'0 0.0
2015-Jan-28 03:31N 51°17' E 004°23'0 0.1
2015-Jan-28 02:33N 51°17' E 004°23'5 5.0
2015-Jan-28 01:33N 51°21' E 004°17'1 0.8
2015-Jan-28 00:33N 51°21' E 004°16'6 5.6
2015-Jan-27 23:33N 51°22' E 004°07'7 6.6
2015-Jan-27 22:33N 51°24' E 003°57'8 8.5
2015-Jan-27 21:33N 51°22' E 003°44'8 8.0
2015-Jan-27 20:33N 51°27' E 003°33'1010.2
2015-Jan-27 19:33N 51°35' E 003°24'12 5.9
2015-Jan-27 17:33N 51°43' E 003°09'6210.4
2015-Jan-27 11:33N 52°32' E 002°07'1313.2
2015-Jan-27 10:32N 52°44' E 001°59'1211.9
2015-Jan-27 09:33N 52°52' E 001°44'1111.1
2015-Jan-27 08:33N 52°60' E 001°31'1110.9
2015-Jan-27 07:33N 53°09' E 001°21'1110.4
2015-Jan-27 06:31N 53°18' E 001°12'3510.2
2015-Jan-27 03:04N 53°48' E 000°40'1110.5
2015-Jan-27 02:04N 53°57' E 000°31'510.8
2015-Jan-27 01:33N 54°01' E 000°26'1111.2
2015-Jan-27 00:33N 54°10' E 000°13'1211.7
2015-Jan-26 23:33N 54°18' W 000°02'1212.2
2015-Jan-26 22:33N 54°27' W 000°16'1312.6
2015-Jan-26 21:33N 54°35' W 000°32'1312.7
2015-Jan-26 20:33N 54°39' W 000°53'1010.3
2015-Jan-26 19:33N 54°41' W 001°10'1 0.5
2015-Jan-26 17:28N 54°42' W 001°12'0 0.0
2015-Jan-26 16:28N 54°42' W 001°12'0 0.0
2015-Jan-26 15:13N 54°42' W 001°12'0 0.0
2015-Jan-26 14:13N 54°42' W 001°12'0 0.0
2015-Jan-26 13:31N 54°42' W 001°12'0 0.0
2015-Jan-26 12:31N 54°42' W 001°12'0 0.0
2015-Jan-26 11:13N 54°42' W 001°12'0 0.0
2015-Jan-26 10:31N 54°42' W 001°12'0 0.0
2015-Jan-26 09:31N 54°42' W 001°12'0 0.0
2015-Jan-26 08:22N 54°42' W 001°12'0 0.0
2015-Jan-26 07:22N 54°42' W 001°12'0 0.0
2015-Jan-26 06:25N 54°42' W 001°12'0 0.0
2015-Jan-25 14:22N 54°42' W 001°12'0 0.0
2015-Jan-25 13:13N 54°42' W 001°12'0 0.0
2015-Jan-25 12:25N 54°42' W 001°12'0 0.0
2015-Jan-25 11:25N 54°42' W 001°12'0 0.0
2015-Jan-25 10:28N 54°42' W 001°12'0 0.0
2015-Jan-25 09:28N 54°42' W 001°12'1 0.3
2015-Jan-25 05:26N 54°41' W 001°10'5 5.6
2015-Jan-25 04:33N 54°45' W 001°06'1110.9
2015-Jan-25 03:33N 54°56' W 001°10'1111.0
2015-Jan-25 02:33N 55°07' W 001°14'12510.9
2015-Jan-24 15:04N 57°09' W 002°02'2 2.9
2015-Jan-24 14:33N 57°09' W 002°05'0 0.0
2015-Jan-24 13:33N 57°09' W 002°05'0 0.0
2015-Jan-24 12:33N 57°09' W 002°05'0 0.0
2015-Jan-24 11:33N 57°09' W 002°05'0 0.0
2015-Jan-24 10:33N 57°09' W 002°05'0 0.0
2015-Jan-24 09:33N 57°09' W 002°05'0 0.0
2015-Jan-24 08:33N 57°09' W 002°05'0 0.0
2015-Jan-24 07:33N 57°09' W 002°05'0 0.0
2015-Jan-24 06:30N 57°09' W 002°05'0 0.0
2015-Jan-24 05:33N 57°09' W 002°05'0 0.0
2015-Jan-24 04:33N 57°09' W 002°05'0 0.0
2015-Jan-24 03:33N 57°09' W 002°05'0 0.0
2015-Jan-24 02:33N 57°09' W 002°05'0 0.0
2015-Jan-24 01:33N 57°09' W 002°05'0 0.0
2015-Jan-24 00:33N 57°09' W 002°05'0 0.0
2015-Jan-23 23:33N 57°09' W 002°05'0 0.0
2015-Jan-23 22:33N 57°09' W 002°05'0 0.0
2015-Jan-23 21:30N 57°09' W 002°05'0 0.0
2015-Jan-23 20:33N 57°09' W 002°05'0 0.0
2015-Jan-23 19:33N 57°09' W 002°05'0 0.0
2015-Jan-23 18:33N 57°09' W 002°05'139 3.0
2015-Jan-21 20:28N 55°03' W 000°16'1213.2
2015-Jan-21 19:33N 54°52' W 000°07'1212.5
2015-Jan-21 18:33N 54°41' E 000°03'1211.8
2015-Jan-21 17:33N 54°31' E 000°12'1111.4
2015-Jan-21 16:33N 54°20' E 000°20'1111.2
2015-Jan-21 15:33N 54°10' E 000°28'1211.5
2015-Jan-21 14:33N 53°60' E 000°36'1312.5
2015-Jan-21 13:33N 53°48' E 000°45'4214.1
2015-Jan-21 10:33N 53°11' E 001°19'1212.1
2015-Jan-21 09:33N 53°01' E 001°30'1010.1
2015-Jan-21 08:33N 52°54' E 001°41'9 9.3
2015-Jan-21 07:33N 52°48' E 001°53'9 9.2
2015-Jan-21 06:33N 52°40' E 002°02'1111.1
2015-Jan-21 05:33N 52°29' E 002°00'1312.8
2015-Jan-21 04:33N 52°17' E 001°56'1413.7
2015-Jan-21 03:34N 52°03' E 001°52'  
Track history (hours):
 
Tides and Currents Weather Stations Pressure Air Temp Water Temp Dewpoint Dewpoint Depression Visibility Wind Speed Wind Dir Waves Ship Positions

Geja C

Last reported at 2015-Jan-31 03:33 UTC. Time now 2015-Jan-31 04:05 UTC.
Position N 51°22' E 001°56'.

Length 142 m; draft 7.3 m.

Type: Ship (hazmat cat A). MMSI: 235006360.

Date/timePositionNaut miles runAvg speedWind from/ knotsBaromVisibWave heightAir tempDewpointWater temp
2015-Jan-31 03:33N 51°22' E 001°56'10 9.8
2015-Jan-31 02:33N 51°22' E 002°12'1211.2
2015-Jan-31 01:32N 51°23' E 002°30'1010.7
2015-Jan-31 00:33N 51°24' E 002°46'1110.9
2015-Jan-30 23:32N 51°24' E 003°04'1110.7
2015-Jan-30 22:33N 51°25' E 003°21'10 9.9
2015-Jan-30 21:33N 51°26' E 003°37'9 8.5
2015-Jan-30 20:34N 51°21' E 003°48'9 8.9
2015-Jan-30 19:33N 51°26' E 003°60'8 7.5
2015-Jan-30 18:33N 51°24' E 004°11'9 8.5
2015-Jan-30 17:33N 51°17' E 004°19'1 0.6
2015-Jan-30 16:33N 51°17' E 004°20'2 1.7
2015-Jan-30 15:31N 51°17' E 004°23'0 0.0
2015-Jan-30 14:31N 51°17' E 004°23'0 0.0
2015-Jan-30 13:31N 51°17' E 004°23'0 0.0
2015-Jan-30 12:31N 51°17' E 004°23'0 0.0
2015-Jan-30 11:22N 51°17' E 004°23'0 0.0
2015-Jan-30 10:31N 51°17' E 004°23'0 0.0
2015-Jan-30 09:28N 51°17' E 004°23'0 0.0
2015-Jan-30 08:28N 51°17' E 004°23'0 0.0
2015-Jan-30 07:31N 51°17' E 004°23'0 0.0
2015-Jan-30 06:28N 51°17' E 004°23'0 0.0
2015-Jan-30 05:28N 51°17' E 004°23'0 0.0
2015-Jan-30 04:31N 51°17' E 004°23'0 0.0
2015-Jan-30 03:31N 51°17' E 004°23'0 0.0
2015-Jan-30 02:31N 51°17' E 004°23'0 0.0
2015-Jan-30 01:31N 51°17' E 004°23'0 0.0
2015-Jan-30 00:31N 51°17' E 004°23'0 0.0
2015-Jan-29 23:31N 51°17' E 004°23'0 0.0
2015-Jan-29 22:31N 51°17' E 004°23'0 0.0
2015-Jan-29 21:31N 51°17' E 004°23'0 0.0
2015-Jan-29 20:31N 51°17' E 004°23'0 0.0
2015-Jan-29 19:31N 51°17' E 004°23'0 0.0
2015-Jan-29 18:31N 51°17' E 004°23'0 0.0
2015-Jan-29 17:31N 51°17' E 004°23'0 0.0
2015-Jan-29 16:31N 51°17' E 004°23'0 0.0
2015-Jan-29 15:31N 51°17' E 004°23'0 0.0
2015-Jan-29 14:31N 51°17' E 004°23'0 0.0
2015-Jan-29 13:31N 51°17' E 004°23'0 0.0
2015-Jan-29 12:31N 51°17' E 004°23'0 0.0
2015-Jan-29 11:31N 51°17' E 004°23'0 0.0
2015-Jan-29 10:22N 51°17' E 004°23'0 0.0
2015-Jan-29 09:31N 51°17' E 004°23'0 0.0
2015-Jan-29 08:31N 51°17' E 004°23'0 0.0
2015-Jan-29 07:31N 51°17' E 004°23'0 0.0
2015-Jan-29 06:22N 51°17' E 004°23'0 0.0
2015-Jan-29 05:31N 51°17' E 004°23'0 0.0
2015-Jan-29 04:28N 51°17' E 004°23'0 0.0
2015-Jan-29 03:25N 51°17' E 004°23'0 0.0
2015-Jan-29 02:25N 51°17' E 004°23'0 0.0
2015-Jan-29 01:31N 51°17' E 004°23'0 0.0
2015-Jan-29 00:31N 51°17' E 004°23'0 0.0
2015-Jan-28 23:31N 51°17' E 004°23'0 0.0
2015-Jan-28 22:31N 51°17' E 004°23'0 0.0
2015-Jan-28 21:28N 51°17' E 004°23'0 0.0
2015-Jan-28 20:31N 51°17' E 004°23'0 0.0
2015-Jan-28 19:31N 51°17' E 004°23'0 0.0
2015-Jan-28 18:31N 51°17' E 004°23'0 0.0
2015-Jan-28 17:31N 51°17' E 004°23'0 0.0
2015-Jan-28 16:28N 51°17' E 004°23'0 0.0
2015-Jan-28 15:31N 51°17' E 004°23'0 0.0
2015-Jan-28 14:28N 51°17' E 004°23'0 0.0
2015-Jan-28 13:31N 51°17' E 004°23'0 0.0
2015-Jan-28 12:31N 51°17' E 004°23'0 0.0
2015-Jan-28 11:31N 51°17' E 004°23'0 0.0
2015-Jan-28 10:31N 51°17' E 004°23'0 0.0
2015-Jan-28 09:31N 51°17' E 004°23'0 0.0
2015-Jan-28 08:31N 51°17' E 004°23'0 0.0
2015-Jan-28 07:28N 51°17' E 004°23'0 0.0
2015-Jan-28 06:28N 51°17' E 004°23'0 0.0
2015-Jan-28 05:25N 51°17' E 004°23'0 0.0
2015-Jan-28 04:31N 51°17' E 004°23'0 0.0
2015-Jan-28 03:31N 51°17' E 004°23'0 0.1
2015-Jan-28 02:33N 51°17' E 004°23'5 5.0
2015-Jan-28 01:33N 51°21' E 004°17'1 0.8
2015-Jan-28 00:33N 51°21' E 004°16'6 5.6
2015-Jan-27 23:33N 51°22' E 004°07'7 6.6
2015-Jan-27 22:33N 51°24' E 003°57'8 8.5
2015-Jan-27 21:33N 51°22' E 003°44'8 8.0
2015-Jan-27 20:33N 51°27' E 003°33'1010.2
2015-Jan-27 19:33N 51°35' E 003°24'12 5.9
2015-Jan-27 17:33N 51°43' E 003°09'6210.4
2015-Jan-27 11:33N 52°32' E 002°07'1313.2
2015-Jan-27 10:32N 52°44' E 001°59'1211.9
2015-Jan-27 09:33N 52°52' E 001°44'1111.1
2015-Jan-27 08:33N 52°60' E 001°31'1110.9
2015-Jan-27 07:33N 53°09' E 001°21'1110.4
2015-Jan-27 06:31N 53°18' E 001°12'3510.2
2015-Jan-27 03:04N 53°48' E 000°40'1110.5
2015-Jan-27 02:04N 53°57' E 000°31'510.8
2015-Jan-27 01:33N 54°01' E 000°26'1111.2
2015-Jan-27 00:33N 54°10' E 000°13'1211.7
2015-Jan-26 23:33N 54°18' W 000°02'1212.2
2015-Jan-26 22:33N 54°27' W 000°16'1312.6
2015-Jan-26 21:33N 54°35' W 000°32'1312.7
2015-Jan-26 20:33N 54°39' W 000°53'1010.3
2015-Jan-26 19:33N 54°41' W 001°10'1 0.5
2015-Jan-26 17:28N 54°42' W 001°12'0 0.0
2015-Jan-26 16:28N 54°42' W 001°12'0 0.0
2015-Jan-26 15:13N 54°42' W 001°12'0 0.0
2015-Jan-26 14:13N 54°42' W 001°12'0 0.0
2015-Jan-26 13:31N 54°42' W 001°12'0 0.0
2015-Jan-26 12:31N 54°42' W 001°12'0 0.0
2015-Jan-26 11:13N 54°42' W 001°12'0 0.0
2015-Jan-26 10:31N 54°42' W 001°12'0 0.0
2015-Jan-26 09:31N 54°42' W 001°12'0 0.0
2015-Jan-26 08:22N 54°42' W 001°12'0 0.0
2015-Jan-26 07:22N 54°42' W 001°12'0 0.0
2015-Jan-26 06:25N 54°42' W 001°12'0 0.0
2015-Jan-25 14:22N 54°42' W 001°12'0 0.0
2015-Jan-25 13:13N 54°42' W 001°12'0 0.0
2015-Jan-25 12:25N 54°42' W 001°12'0 0.0
2015-Jan-25 11:25N 54°42' W 001°12'0 0.0
2015-Jan-25 10:28N 54°42' W 001°12'0 0.0
2015-Jan-25 09:28N 54°42' W 001°12'1 0.3
2015-Jan-25 05:26N 54°41' W 001°10'5 5.6
2015-Jan-25 04:33N 54°45' W 001°06'1110.9
2015-Jan-25 03:33N 54°56' W 001°10'1111.0
2015-Jan-25 02:33N 55°07' W 001°14'12510.9
2015-Jan-24 15:04N 57°09' W 002°02'2 2.9
2015-Jan-24 14:33N 57°09' W 002°05'0 0.0
2015-Jan-24 13:33N 57°09' W 002°05'0 0.0
2015-Jan-24 12:33N 57°09' W 002°05'0 0.0
2015-Jan-24 11:33N 57°09' W 002°05'0 0.0
2015-Jan-24 10:33N 57°09' W 002°05'0 0.0
2015-Jan-24 09:33N 57°09' W 002°05'0 0.0
2015-Jan-24 08:33N 57°09' W 002°05'0 0.0
2015-Jan-24 07:33N 57°09' W 002°05'0 0.0
2015-Jan-24 06:30N 57°09' W 002°05'0 0.0
2015-Jan-24 05:33N 57°09' W 002°05'0 0.0
2015-Jan-24 04:33N 57°09' W 002°05'0 0.0
2015-Jan-24 03:33N 57°09' W 002°05'0 0.0
2015-Jan-24 02:33N 57°09' W 002°05'0 0.0
2015-Jan-24 01:33N 57°09' W 002°05'0 0.0
2015-Jan-24 00:33N 57°09' W 002°05'0 0.0
2015-Jan-23 23:33N 57°09' W 002°05'0 0.0
2015-Jan-23 22:33N 57°09' W 002°05'0 0.0
2015-Jan-23 21:30N 57°09' W 002°05'0 0.0
2015-Jan-23 20:33N 57°09' W 002°05'0 0.0
2015-Jan-23 19:33N 57°09' W 002°05'0 0.0
2015-Jan-23 18:33N 57°09' W 002°05'139 3.0
2015-Jan-21 20:28N 55°03' W 000°16'1213.2
2015-Jan-21 19:33N 54°52' W 000°07'1212.5
2015-Jan-21 18:33N 54°41' E 000°03'1211.8
2015-Jan-21 17:33N 54°31' E 000°12'1111.4
2015-Jan-21 16:33N 54°20' E 000°20'1111.2
2015-Jan-21 15:33N 54°10' E 000°28'1211.5
2015-Jan-21 14:33N 53°60' E 000°36'1312.5
2015-Jan-21 13:33N 53°48' E 000°45'4214.1
2015-Jan-21 10:33N 53°11' E 001°19'1212.1
2015-Jan-21 09:33N 53°01' E 001°30'1010.1
2015-Jan-21 08:33N 52°54' E 001°41'9 9.3
2015-Jan-21 07:33N 52°48' E 001°53'9 9.2
2015-Jan-21 06:33N 52°40' E 002°02'1111.1
2015-Jan-21 05:33N 52°29' E 002°00'1312.8
2015-Jan-21 04:33N 52°17' E 001°56'1413.7
2015-Jan-21 03:34N 52°03' E 001°52'  

Dump ship's entire track history